sensor_id;sensor_type;location;lat;lon;timestamp;pressure;altitude;pressure_sealevel;temperature;humidity
30935;BME280;51033;42.648;23.292;2023-04-01T00:00:57;92961.31;;;12.52;39.95
30935;BME280;51033;42.648;23.292;2023-04-01T00:03:24;92967.72;;;11.60;42.24
30935;BME280;51033;42.648;23.292;2023-04-01T00:05:52;92980.72;;;11.62;43.43
30935;BME280;51033;42.648;23.292;2023-04-01T00:08:18;92974.03;;;12.12;42.18
30935;BME280;51033;42.648;23.292;2023-04-01T00:10:44;92970.97;;;12.25;41.96
30935;BME280;51033;42.648;23.292;2023-04-01T00:13:09;92991.94;;;12.27;42.29
30935;BME280;51033;42.648;23.292;2023-04-01T00:15:35;92970.69;;;12.15;43.04
30935;BME280;51033;42.648;23.292;2023-04-01T00:18:01;92983.91;;;11.68;43.93
30935;BME280;51033;42.648;23.292;2023-04-01T00:20:27;92978.47;;;11.64;44.20
30935;BME280;51033;42.648;23.292;2023-04-01T00:22:53;92973.16;;;11.64;44.46
30935;BME280;51033;42.648;23.292;2023-04-01T00:25:18;92992.16;;;11.63;44.94
30935;BME280;51033;42.648;23.292;2023-04-01T00:27:44;92973.00;;;10.68;46.97
30935;BME280;51033;42.648;23.292;2023-04-01T00:30:10;92973.94;;;11.25;46.09
30935;BME280;51033;42.648;23.292;2023-04-01T00:32:36;93003.63;;;11.39;45.79
30935;BME280;51033;42.648;23.292;2023-04-01T00:35:02;92998.81;;;11.56;45.63
30935;BME280;51033;42.648;23.292;2023-04-01T00:37:28;92988.22;;;10.56;46.87
30935;BME280;51033;42.648;23.292;2023-04-01T00:39:54;92957.38;;;10.43;47.83
30935;BME280;51033;42.648;23.292;2023-04-01T00:42:20;92958.16;;;10.31;47.90
30935;BME280;51033;42.648;23.292;2023-04-01T00:44:49;92971.09;;;10.32;48.74
30935;BME280;51033;42.648;23.292;2023-04-01T00:47:15;92964.69;;;10.94;48.33
30935;BME280;51033;42.648;23.292;2023-04-01T00:49:44;92969.16;;;10.66;48.58
30935;BME280;51033;42.648;23.292;2023-04-01T00:52:14;92977.47;;;11.29;47.69
30935;BME280;51033;42.648;23.292;2023-04-01T00:54:41;92947.16;;;10.93;47.95
30935;BME280;51033;42.648;23.292;2023-04-01T00:57:12;92947.22;;;11.21;47.84
30935;BME280;51033;42.648;23.292;2023-04-01T00:59:43;92959.50;;;11.26;47.97
30935;BME280;51033;42.648;23.292;2023-04-01T01:02:11;92954.78;;;11.47;47.87
30935;BME280;51033;42.648;23.292;2023-04-01T01:04:37;92930.81;;;11.47;47.28
30935;BME280;51033;42.648;23.292;2023-04-01T01:15:24;92927.03;;;10.80;45.84
30935;BME280;51033;42.648;23.292;2023-04-01T01:29:50;92908.53;;;11.11;45.60
30935;BME280;51033;42.648;23.292;2023-04-01T01:38:06;92869.72;;;11.10;44.96
30935;BME280;51033;42.648;23.292;2023-04-01T01:40:34;92905.22;;;10.38;45.75
30935;BME280;51033;42.648;23.292;2023-04-01T01:43:06;92913.03;;;10.95;45.50
30935;BME280;51033;42.648;23.292;2023-04-01T01:45:35;92897.03;;;11.07;44.75
30935;BME280;51033;42.648;23.292;2023-04-01T01:48:04;92908.34;;;11.04;44.65
30935;BME280;51033;42.648;23.292;2023-04-01T01:50:32;92849.06;;;9.79;46.95
30935;BME280;51033;42.648;23.292;2023-04-01T01:53:07;92848.63;;;10.50;45.51
30935;BME280;51033;42.648;23.292;2023-04-01T01:55:39;92886.97;;;10.37;45.80
30935;BME280;51033;42.648;23.292;2023-04-01T01:58:17;92893.22;;;10.81;45.42
30935;BME280;51033;42.648;23.292;2023-04-01T02:00:58;92880.31;;;10.55;45.59
30935;BME280;51033;42.648;23.292;2023-04-01T02:03:27;92887.06;;;11.04;45.25
30935;BME280;51033;42.648;23.292;2023-04-01T02:05:56;92883.69;;;11.20;44.41
30935;BME280;51033;42.648;23.292;2023-04-01T02:08:26;92873.38;;;10.90;45.40
30935;BME280;51033;42.648;23.292;2023-04-01T02:11:00;92856.03;;;10.08;47.05
30935;BME280;51033;42.648;23.292;2023-04-01T02:13:56;92829.34;;;10.65;45.70
30935;BME280;51033;42.648;23.292;2023-04-01T02:16:32;92869.25;;;11.21;45.12
30935;BME280;51033;42.648;23.292;2023-04-01T02:18:59;92874.56;;;11.21;44.17
30935;BME280;51033;42.648;23.292;2023-04-01T02:21:30;92866.16;;;11.18;44.79
30935;BME280;51033;42.648;23.292;2023-04-01T02:23:57;92843.75;;;10.03;45.97
30935;BME280;51033;42.648;23.292;2023-04-01T02:26:25;92855.88;;;10.77;45.25
30935;BME280;51033;42.648;23.292;2023-04-01T02:28:53;92869.06;;;11.13;44.53
30935;BME280;51033;42.648;23.292;2023-04-01T02:31:19;92830.44;;;10.64;44.27
30935;BME280;51033;42.648;23.292;2023-04-01T02:33:45;92864.09;;;10.72;44.48
30935;BME280;51033;42.648;23.292;2023-04-01T02:36:16;92875.63;;;10.64;44.94
30935;BME280;51033;42.648;23.292;2023-04-01T02:38:43;92883.03;;;11.10;44.26
30935;BME280;51033;42.648;23.292;2023-04-01T02:41:10;92820.97;;;11.06;43.76
30935;BME280;51033;42.648;23.292;2023-04-01T02:43:35;92841.19;;;11.23;44.76
30935;BME280;51033;42.648;23.292;2023-04-01T02:46:01;92852.78;;;11.31;43.50
30935;BME280;51033;42.648;23.292;2023-04-01T02:48:27;92863.03;;;10.24;44.41
30935;BME280;51033;42.648;23.292;2023-04-01T02:50:53;92874.63;;;10.68;44.71
30935;BME280;51033;42.648;23.292;2023-04-01T02:53:18;92843.03;;;10.67;44.64
30935;BME280;51033;42.648;23.292;2023-04-01T02:55:44;92895.69;;;11.13;44.00
30935;BME280;51033;42.648;23.292;2023-04-01T02:58:10;92888.25;;;11.07;44.56
30935;BME280;51033;42.648;23.292;2023-04-01T03:00:36;92903.59;;;11.26;44.33
30935;BME280;51033;42.648;23.292;2023-04-01T03:03:02;92894.59;;;11.02;44.20
30935;BME280;51033;42.648;23.292;2023-04-01T03:05:27;92899.53;;;11.16;44.14
30935;BME280;51033;42.648;23.292;2023-04-01T03:07:53;92890.03;;;10.75;43.95
30935;BME280;51033;42.648;23.292;2023-04-01T03:10:18;92889.75;;;10.92;44.89
30935;BME280;51033;42.648;23.292;2023-04-01T03:12:44;92870.00;;;9.35;46.58
30935;BME280;51033;42.648;23.292;2023-04-01T03:15:11;92900.91;;;10.21;45.40
30935;BME280;51033;42.648;23.292;2023-04-01T03:17:38;92900.00;;;10.17;44.66
30935;BME280;51033;42.648;23.292;2023-04-01T03:20:05;92891.97;;;9.03;48.19
30935;BME280;51033;42.648;23.292;2023-04-01T03:22:31;92905.03;;;9.74;49.50
30935;BME280;51033;42.648;23.292;2023-04-01T03:24:56;92919.03;;;10.19;48.80
30935;BME280;51033;42.648;23.292;2023-04-01T03:27:22;92903.75;;;10.28;49.33
30935;BME280;51033;42.648;23.292;2023-04-01T03:29:48;92892.19;;;9.10;51.46
30935;BME280;51033;42.648;23.292;2023-04-01T03:32:13;92876.13;;;8.53;50.00
30935;BME280;51033;42.648;23.292;2023-04-01T03:34:39;92882.78;;;9.21;51.20
30935;BME280;51033;42.648;23.292;2023-04-01T03:37:04;92887.72;;;9.43;48.89
30935;BME280;51033;42.648;23.292;2023-04-01T03:39:31;92867.19;;;9.53;49.37
30935;BME280;51033;42.648;23.292;2023-04-01T03:41:56;92878.47;;;9.74;49.87
30935;BME280;51033;42.648;23.292;2023-04-01T03:44:21;92853.03;;;9.49;51.00
30935;BME280;51033;42.648;23.292;2023-04-01T03:46:47;92853.41;;;9.06;53.34
30935;BME280;51033;42.648;23.292;2023-04-01T03:49:12;92856.16;;;9.75;53.22
30935;BME280;51033;42.648;23.292;2023-04-01T03:51:39;92849.72;;;10.12;53.25
30935;BME280;51033;42.648;23.292;2023-04-01T03:54:04;92839.09;;;10.12;52.41
30935;BME280;51033;42.648;23.292;2023-04-01T03:56:31;92842.53;;;10.49;52.58
30935;BME280;51033;42.648;23.292;2023-04-01T03:58:56;92819.97;;;10.71;51.64
30935;BME280;51033;42.648;23.292;2023-04-01T04:01:22;92794.94;;;10.08;52.73
30935;BME280;51033;42.648;23.292;2023-04-01T04:03:49;92811.72;;;10.60;52.31
30935;BME280;51033;42.648;23.292;2023-04-01T04:06:16;92780.53;;;10.73;50.95
30935;BME280;51033;42.648;23.292;2023-04-01T04:08:41;92799.53;;;10.87;49.94
30935;BME280;51033;42.648;23.292;2023-04-01T04:11:07;92785.28;;;10.80;50.17
30935;BME280;51033;42.648;23.292;2023-04-01T04:13:33;92765.50;;;10.93;50.97
30935;BME280;51033;42.648;23.292;2023-04-01T04:15:59;92763.13;;;11.03;49.86
30935;BME280;51033;42.648;23.292;2023-04-01T04:18:24;92746.75;;;11.17;49.26
30935;BME280;51033;42.648;23.292;2023-04-01T04:20:49;92751.84;;;11.38;48.40
30935;BME280;51033;42.648;23.292;2023-04-01T04:23:17;92748.31;;;11.49;48.28
30935;BME280;51033;42.648;23.292;2023-04-01T04:25:58;92766.81;;;11.58;48.21
30935;BME280;51033;42.648;23.292;2023-04-01T04:28:25;92763.72;;;11.56;46.80
30935;BME280;51033;42.648;23.292;2023-04-01T04:30:51;92751.00;;;10.10;49.27
30935;BME280;51033;42.648;23.292;2023-04-01T04:33:16;92766.81;;;10.71;48.80
30935;BME280;51033;42.648;23.292;2023-04-01T04:35:42;92762.28;;;11.15;47.78
30935;BME280;51033;42.648;23.292;2023-04-01T04:38:07;92736.97;;;11.21;47.61
30935;BME280;51033;42.648;23.292;2023-04-01T04:40:33;92754.06;;;11.36;47.64
30935;BME280;51033;42.648;23.292;2023-04-01T04:43:00;92732.41;;;11.22;48.19
30935;BME280;51033;42.648;23.292;2023-04-01T04:45:26;92724.09;;;11.23;48.13
30935;BME280;51033;42.648;23.292;2023-04-01T04:47:51;92719.38;;;11.48;47.81
30935;BME280;51033;42.648;23.292;2023-04-01T04:50:16;92742.75;;;11.54;48.13
30935;BME280;51033;42.648;23.292;2023-04-01T04:52:42;92729.94;;;11.29;48.20
30935;BME280;51033;42.648;23.292;2023-04-01T04:55:07;92737.94;;;11.29;48.33
30935;BME280;51033;42.648;23.292;2023-04-01T04:57:33;92711.22;;;11.09;49.29
30935;BME280;51033;42.648;23.292;2023-04-01T04:59:58;92715.78;;;11.25;48.76
30935;BME280;51033;42.648;23.292;2023-04-01T05:02:24;92721.84;;;11.25;49.50
30935;BME280;51033;42.648;23.292;2023-04-01T05:04:49;92727.09;;;11.22;49.65
30935;BME280;51033;42.648;23.292;2023-04-01T05:07:14;92730.19;;;11.24;49.89
30935;BME280;51033;42.648;23.292;2023-04-01T05:09:40;92708.31;;;11.14;49.09
30935;BME280;51033;42.648;23.292;2023-04-01T05:12:05;92718.00;;;11.23;49.40
30935;BME280;51033;42.648;23.292;2023-04-01T05:14:31;92719.28;;;11.29;48.81
30935;BME280;51033;42.648;23.292;2023-04-01T05:16:56;92709.00;;;11.27;48.95
30935;BME280;51033;42.648;23.292;2023-04-01T05:19:22;92691.53;;;11.30;48.77
30935;BME280;51033;42.648;23.292;2023-04-01T05:21:47;92681.44;;;11.20;48.72
30935;BME280;51033;42.648;23.292;2023-04-01T05:24:12;92691.31;;;11.19;48.94
30935;BME280;51033;42.648;23.292;2023-04-01T05:26:38;92675.72;;;10.74;49.83
30935;BME280;51033;42.648;23.292;2023-04-01T05:29:04;92678.94;;;10.95;49.96
30935;BME280;51033;42.648;23.292;2023-04-01T05:31:30;92671.88;;;10.04;51.27
30935;BME280;51033;42.648;23.292;2023-04-01T05:33:55;92663.63;;;10.61;50.42
30935;BME280;51033;42.648;23.292;2023-04-01T05:36:21;92685.63;;;11.21;48.51
30935;BME280;51033;42.648;23.292;2023-04-01T05:38:46;92671.13;;;11.02;49.63
30935;BME280;51033;42.648;23.292;2023-04-01T05:41:13;92700.72;;;11.16;48.54
30935;BME280;51033;42.648;23.292;2023-04-01T05:43:39;92677.69;;;10.77;48.53
30935;BME280;51033;42.648;23.292;2023-04-01T05:46:05;92687.47;;;10.73;47.92
30935;BME280;51033;42.648;23.292;2023-04-01T05:48:30;92661.84;;;10.81;47.86
30935;BME280;51033;42.648;23.292;2023-04-01T05:50:56;92672.22;;;10.86;47.92
30935;BME280;51033;42.648;23.292;2023-04-01T05:53:21;92683.84;;;11.25;48.01
30935;BME280;51033;42.648;23.292;2023-04-01T05:55:47;92679.28;;;11.09;46.45
30935;BME280;51033;42.648;23.292;2023-04-01T05:58:13;92667.38;;;10.60;47.86
30935;BME280;51033;42.648;23.292;2023-04-01T06:00:38;92663.13;;;10.43;48.67
30935;BME280;51033;42.648;23.292;2023-04-01T06:03:04;92675.06;;;11.08;48.58
30935;BME280;51033;42.648;23.292;2023-04-01T06:05:30;92671.81;;;11.62;46.87
30935;BME280;51033;42.648;23.292;2023-04-01T06:08:09;92666.81;;;10.98;47.37
30935;BME280;51033;42.648;23.292;2023-04-01T06:11:00;92684.28;;;11.58;46.09
30935;BME280;51033;42.648;23.292;2023-04-01T06:35:37;92646.34;;;12.57;42.84
30935;BME280;51033;42.648;23.292;2023-04-01T06:38:06;92658.91;;;12.57;43.25
30935;BME280;51033;42.648;23.292;2023-04-01T06:52:09;92635.56;;;12.12;42.86
30935;BME280;51033;42.648;23.292;2023-04-01T06:54:43;92621.19;;;12.16;42.79
30935;BME280;51033;42.648;23.292;2023-04-01T06:57:32;92631.22;;;12.23;42.55
30935;BME280;51033;42.648;23.292;2023-04-01T07:00:02;92593.25;;;11.37;43.62
30935;BME280;51033;42.648;23.292;2023-04-01T07:02:45;92621.78;;;11.71;44.11
30935;BME280;51033;42.648;23.292;2023-04-01T07:05:15;92538.94;;;11.57;42.68
30935;BME280;51033;42.648;23.292;2023-04-01T07:07:47;92634.72;;;12.46;42.67
30935;BME280;51033;42.648;23.292;2023-04-01T07:10:31;92623.94;;;11.66;43.49
30935;BME280;51033;42.648;23.292;2023-04-01T07:13:03;92611.84;;;11.68;44.82
30935;BME280;51033;42.648;23.292;2023-04-01T07:15:36;92619.94;;;11.56;45.06
30935;BME280;51033;42.648;23.292;2023-04-01T07:18:12;92621.94;;;11.78;45.01
30935;BME280;51033;42.648;23.292;2023-04-01T07:20:39;92629.44;;;11.73;44.23
30935;BME280;51033;42.648;23.292;2023-04-01T07:23:32;92630.38;;;11.99;45.08
30935;BME280;51033;42.648;23.292;2023-04-01T07:26:23;92646.38;;;12.19;44.23
30935;BME280;51033;42.648;23.292;2023-04-01T07:28:51;92637.69;;;12.22;43.82
30935;BME280;51033;42.648;23.292;2023-04-01T07:31:25;92619.22;;;12.32;43.72
30935;BME280;51033;42.648;23.292;2023-04-01T07:34:04;92634.84;;;12.53;44.09
30935;BME280;51033;42.648;23.292;2023-04-01T07:39:43;92642.06;;;12.72;43.29
30935;BME280;51033;42.648;23.292;2023-04-01T07:42:27;92615.03;;;12.73;42.82
30935;BME280;51033;42.648;23.292;2023-04-01T07:53:41;92615.69;;;12.47;43.81
30935;BME280;51033;42.648;23.292;2023-04-01T07:58:49;92633.09;;;12.80;43.63
30935;BME280;51033;42.648;23.292;2023-04-01T08:01:34;92620.13;;;12.82;43.64
30935;BME280;51033;42.648;23.292;2023-04-01T08:04:33;92611.06;;;12.44;44.86
30935;BME280;51033;42.648;23.292;2023-04-01T08:07:23;92575.56;;;12.60;44.77
30935;BME280;51033;42.648;23.292;2023-04-01T08:24:04;92574.41;;;13.29;44.02
30935;BME280;51033;42.648;23.292;2023-04-01T08:28:41;92552.88;;;12.69;45.23
30935;BME280;51033;42.648;23.292;2023-04-01T08:31:17;92518.84;;;12.85;45.00
30935;BME280;51033;42.648;23.292;2023-04-01T08:33:46;92537.50;;;12.63;46.48
30935;BME280;51033;42.648;23.292;2023-04-01T08:36:19;92514.97;;;12.83;44.92
30935;BME280;51033;42.648;23.292;2023-04-01T08:38:55;92484.31;;;12.28;46.04
30935;BME280;51033;42.648;23.292;2023-04-01T08:53:12;92499.31;;;13.34;43.89
30935;BME280;51033;42.648;23.292;2023-04-01T09:06:48;92506.22;;;13.09;42.40
30935;BME280;51033;42.648;23.292;2023-04-01T09:12:31;92504.88;;;13.22;43.62
30935;BME280;51033;42.648;23.292;2023-04-01T09:26:34;92470.47;;;14.10;40.21
30935;BME280;51033;42.648;23.292;2023-04-01T09:34:25;92448.16;;;14.76;34.79
30935;BME280;51033;42.648;23.292;2023-04-01T09:46:01;92430.38;;;15.09;34.65
30935;BME280;51033;42.648;23.292;2023-04-01T09:48:58;92403.69;;;15.26;34.94
30935;BME280;51033;42.648;23.292;2023-04-01T10:22:32;92369.00;;;15.48;35.83
30935;BME280;51033;42.648;23.292;2023-04-01T10:36:46;92311.16;;;15.43;32.20
30935;BME280;51033;42.648;23.292;2023-04-01T10:39:26;92345.78;;;16.08;31.54
30935;BME280;51033;42.648;23.292;2023-04-01T10:58:41;92303.22;;;15.96;31.94
30935;BME280;51033;42.648;23.292;2023-04-01T11:19:49;92298.09;;;15.20;32.59
30935;BME280;51033;42.648;23.292;2023-04-01T11:28:30;92347.00;;;14.45;36.66
30935;BME280;51033;42.648;23.292;2023-04-01T11:34:01;92374.16;;;14.47;37.74
30935;BME280;51033;42.648;23.292;2023-04-01T11:36:37;92388.22;;;14.91;38.37
30935;BME280;51033;42.648;23.292;2023-04-01T11:42:26;92434.28;;;14.60;42.23
30935;BME280;51033;42.648;23.292;2023-04-01T11:45:19;92480.44;;;14.13;44.85
30935;BME280;51033;42.648;23.292;2023-04-01T12:03:59;92594.81;;;10.59;68.03
30935;BME280;51033;42.648;23.292;2023-04-01T12:09:17;92569.00;;;10.91;68.54
30935;BME280;51033;42.648;23.292;2023-04-01T12:12:07;92568.66;;;11.08;69.11
30935;BME280;51033;42.648;23.292;2023-04-01T12:15:12;92547.38;;;11.08;70.17
30935;BME280;51033;42.648;23.292;2023-04-01T12:20:51;92556.13;;;10.93;69.25
30935;BME280;51033;42.648;23.292;2023-04-01T12:23:41;92549.59;;;11.06;67.52
30935;BME280;51033;42.648;23.292;2023-04-01T12:29:16;92572.09;;;10.93;65.51
30935;BME280;51033;42.648;23.292;2023-04-01T12:32:14;92542.50;;;10.95;62.83
30935;BME280;51033;42.648;23.292;2023-04-01T12:46:03;92553.91;;;10.48;66.01
30935;BME280;51033;42.648;23.292;2023-04-01T12:51:33;92569.19;;;10.67;66.44
30935;BME280;51033;42.648;23.292;2023-04-01T12:54:35;92570.72;;;10.68;65.46
30935;BME280;51033;42.648;23.292;2023-04-01T13:02:56;92487.25;;;10.10;66.74
30935;BME280;51033;42.648;23.292;2023-04-01T13:16:17;92445.00;;;10.05;66.95
30935;BME280;51033;42.648;23.292;2023-04-01T13:27:20;92498.47;;;10.97;62.11
30935;BME280;51033;42.648;23.292;2023-04-01T13:38:37;92478.56;;;11.26;53.05
30935;BME280;51033;42.648;23.292;2023-04-01T13:44:09;92444.72;;;11.27;51.23
30935;BME280;51033;42.648;23.292;2023-04-01T14:01:35;92418.53;;;11.86;49.74
30935;BME280;51033;42.648;23.292;2023-04-01T14:09:19;92398.50;;;12.41;45.02
30935;BME280;51033;42.648;23.292;2023-04-01T14:15:07;92393.59;;;12.47;45.67
30935;BME280;51033;42.648;23.292;2023-04-01T14:20:25;92372.75;;;12.03;45.29
30935;BME280;51033;42.648;23.292;2023-04-01T14:33:31;92351.47;;;12.56;45.50
30935;BME280;51033;42.648;23.292;2023-04-01T14:42:08;92342.25;;;12.50;43.53
30935;BME280;51033;42.648;23.292;2023-04-01T14:50:17;92316.56;;;12.65;42.58
30935;BME280;51033;42.648;23.292;2023-04-01T14:58:11;92350.03;;;12.88;43.72
30935;BME280;51033;42.648;23.292;2023-04-01T15:04:22;92369.03;;;13.50;42.47
30935;BME280;51033;42.648;23.292;2023-04-01T15:14:36;92384.69;;;13.48;42.24
30935;BME280;51033;42.648;23.292;2023-04-01T15:17:27;92388.16;;;13.52;41.47
30935;BME280;51033;42.648;23.292;2023-04-01T15:28:36;92397.16;;;13.41;41.06
30935;BME280;51033;42.648;23.292;2023-04-01T15:37:16;92369.13;;;13.24;42.52
30935;BME280;51033;42.648;23.292;2023-04-01T15:40:01;92394.38;;;13.30;41.48
30935;BME280;51033;42.648;23.292;2023-04-01T15:45:54;92404.63;;;12.95;42.38
30935;BME280;51033;42.648;23.292;2023-04-01T15:48:31;92450.25;;;12.63;42.65
30935;BME280;51033;42.648;23.292;2023-04-01T16:07:11;92674.16;;;8.14;67.25
30935;BME280;51033;42.648;23.292;2023-04-01T16:09:56;92692.06;;;7.76;69.30
30935;BME280;51033;42.648;23.292;2023-04-01T16:15:22;92674.63;;;7.16;73.21
30935;BME280;51033;42.648;23.292;2023-04-01T16:23:35;92697.19;;;7.14;74.06
30935;BME280;51033;42.648;23.292;2023-04-01T16:26:28;92709.03;;;7.08;74.51
30935;BME280;51033;42.648;23.292;2023-04-01T16:29:17;92700.81;;;7.01;75.34
30935;BME280;51033;42.648;23.292;2023-04-01T16:34:58;92724.34;;;6.94;73.62
30935;BME280;51033;42.648;23.292;2023-04-01T16:37:43;92724.34;;;6.94;74.13
30935;BME280;51033;42.648;23.292;2023-04-01T16:40:33;92706.69;;;6.68;74.01
30935;BME280;51033;42.648;23.292;2023-04-01T16:45:45;92716.72;;;6.92;73.99
30935;BME280;51033;42.648;23.292;2023-04-01T16:51:03;92690.28;;;6.92;73.51
30935;BME280;51033;42.648;23.292;2023-04-01T16:53:43;92707.13;;;7.17;71.84
30935;BME280;51033;42.648;23.292;2023-04-01T16:56:14;92725.63;;;7.17;71.53
30935;BME280;51033;42.648;23.292;2023-04-01T16:58:59;92709.78;;;7.17;72.06
30935;BME280;51033;42.648;23.292;2023-04-01T17:01:31;92693.13;;;7.16;71.96
30935;BME280;51033;42.648;23.292;2023-04-01T17:04:14;92698.13;;;7.18;70.67
30935;BME280;51033;42.648;23.292;2023-04-01T17:06:49;92726.19;;;7.31;69.96
30935;BME280;51033;42.648;23.292;2023-04-01T17:09:21;92724.09;;;7.16;69.88
30935;BME280;51033;42.648;23.292;2023-04-01T17:11:59;92722.41;;;7.11;69.84
30935;BME280;51033;42.648;23.292;2023-04-01T17:14:34;92730.41;;;6.94;67.35
30935;BME280;51033;42.648;23.292;2023-04-01T17:17:14;92732.44;;;6.80;68.38
30935;BME280;51033;42.648;23.292;2023-04-01T17:19:49;92747.13;;;6.60;67.74
30935;BME280;51033;42.648;23.292;2023-04-01T17:22:44;92744.00;;;6.58;69.21
30935;BME280;51033;42.648;23.292;2023-04-01T17:25:32;92735.59;;;6.56;71.21
30935;BME280;51033;42.648;23.292;2023-04-01T17:30:35;92737.47;;;6.64;70.13
30935;BME280;51033;42.648;23.292;2023-04-01T17:42:10;92750.22;;;6.54;67.35
30935;BME280;51033;42.648;23.292;2023-04-01T17:47:40;92755.94;;;6.73;65.52
30935;BME280;51033;42.648;23.292;2023-04-01T17:50:20;92735.59;;;6.65;65.44
30935;BME280;51033;42.648;23.292;2023-04-01T17:53:03;92765.41;;;6.65;64.25
30935;BME280;51033;42.648;23.292;2023-04-01T17:58:44;92754.25;;;6.68;63.78
30935;BME280;51033;42.648;23.292;2023-04-01T18:01:17;92767.16;;;6.70;61.62
30935;BME280;51033;42.648;23.292;2023-04-01T18:06:40;92781.72;;;6.84;63.26
30935;BME280;51033;42.648;23.292;2023-04-01T18:17:21;92812.13;;;7.16;60.99
30935;BME280;51033;42.648;23.292;2023-04-01T18:20:16;92800.31;;;7.05;60.36
30935;BME280;51033;42.648;23.292;2023-04-01T18:22:48;92815.22;;;7.18;60.34
30935;BME280;51033;42.648;23.292;2023-04-01T18:27:50;92815.94;;;6.90;60.94
30935;BME280;51033;42.648;23.292;2023-04-01T18:30:30;92806.56;;;6.92;60.70
30935;BME280;51033;42.648;23.292;2023-04-01T18:35:58;92819.97;;;6.78;61.98
30935;BME280;51033;42.648;23.292;2023-04-01T18:38:34;92817.81;;;6.63;61.22
30935;BME280;51033;42.648;23.292;2023-04-01T18:49:29;92825.72;;;6.46;63.52
30935;BME280;51033;42.648;23.292;2023-04-01T18:52:07;92807.06;;;6.51;63.25
30935;BME280;51033;42.648;23.292;2023-04-01T18:54:47;92811.59;;;6.59;62.33
30935;BME280;51033;42.648;23.292;2023-04-01T18:57:16;92825.56;;;6.42;62.96
30935;BME280;51033;42.648;23.292;2023-04-01T18:59:55;92822.94;;;6.51;62.21
30935;BME280;51033;42.648;23.292;2023-04-01T19:02:41;92815.94;;;6.47;61.70
30935;BME280;51033;42.648;23.292;2023-04-01T19:05:18;92815.00;;;6.42;61.96
30935;BME280;51033;42.648;23.292;2023-04-01T19:07:52;92819.50;;;6.25;61.86
30935;BME280;51033;42.648;23.292;2023-04-01T19:10:43;92811.59;;;6.16;62.13
30935;BME280;51033;42.648;23.292;2023-04-01T19:16:04;92849.63;;;6.41;61.70
30935;BME280;51033;42.648;23.292;2023-04-01T19:21:33;92856.81;;;6.40;61.18
30935;BME280;51033;42.648;23.292;2023-04-01T19:41:27;92890.81;;;6.42;61.88
30935;BME280;51033;42.648;23.292;2023-04-01T19:52:39;92906.84;;;6.54;60.49
30935;BME280;51033;42.648;23.292;2023-04-01T20:00:31;92917.88;;;6.48;60.22
30935;BME280;51033;42.648;23.292;2023-04-01T20:03:19;92906.53;;;6.47;59.50
30935;BME280;51033;42.648;23.292;2023-04-01T20:06:14;92924.88;;;6.52;58.28
30935;BME280;51033;42.648;23.292;2023-04-01T20:14:42;92868.09;;;6.15;57.97
30935;BME280;51033;42.648;23.292;2023-04-01T20:20:23;92896.59;;;6.44;58.39
30935;BME280;51033;42.648;23.292;2023-04-01T20:28:23;92900.97;;;6.74;57.32
30935;BME280;51033;42.648;23.292;2023-04-01T20:36:26;92915.56;;;6.80;56.40
30935;BME280;51033;42.648;23.292;2023-04-01T20:44:39;92901.56;;;6.71;55.22
30935;BME280;51033;42.648;23.292;2023-04-01T20:53:01;92885.84;;;7.09;54.62
30935;BME280;51033;42.648;23.292;2023-04-01T20:58:28;92893.19;;;6.86;54.33
30935;BME280;51033;42.648;23.292;2023-04-01T21:06:50;92897.53;;;6.91;54.10
30935;BME280;51033;42.648;23.292;2023-04-01T21:20:30;92923.94;;;7.00;56.30
30935;BME280;51033;42.648;23.292;2023-04-01T21:29:04;92929.88;;;6.97;53.92
30935;BME280;51033;42.648;23.292;2023-04-01T21:34:48;92928.47;;;6.91;53.91
30935;BME280;51033;42.648;23.292;2023-04-01T21:48:44;92915.56;;;7.06;52.59
30935;BME280;51033;42.648;23.292;2023-04-01T21:51:43;92929.72;;;7.19;51.73
30935;BME280;51033;42.648;23.292;2023-04-01T22:05:24;92915.81;;;7.39;52.68
30935;BME280;51033;42.648;23.292;2023-04-01T22:08:04;92924.53;;;7.40;52.58
30935;BME280;51033;42.648;23.292;2023-04-01T22:10:43;92925.03;;;7.33;52.29
30935;BME280;51033;42.648;23.292;2023-04-01T22:13:21;92901.53;;;7.14;52.15
30935;BME280;51033;42.648;23.292;2023-04-01T22:15:59;92901.22;;;7.24;52.16
30935;BME280;51033;42.648;23.292;2023-04-01T22:18:37;92869.72;;;6.94;49.45
30935;BME280;51033;42.648;23.292;2023-04-01T22:21:24;92906.84;;;6.97;49.65
30935;BME280;51033;42.648;23.292;2023-04-01T22:24:08;92887.56;;;6.71;50.19
30935;BME280;51033;42.648;23.292;2023-04-01T22:26:59;92898.59;;;6.56;50.99
30935;BME280;51033;42.648;23.292;2023-04-01T22:29:37;92863.03;;;6.53;49.24
30935;BME280;51033;42.648;23.292;2023-04-01T22:32:12;92882.28;;;6.54;49.56
30935;BME280;51033;42.648;23.292;2023-04-01T22:40:30;92890.81;;;6.42;50.47
30935;BME280;51033;42.648;23.292;2023-04-01T22:43:03;92915.69;;;6.50;50.47
30935;BME280;51033;42.648;23.292;2023-04-01T22:53:34;92944.47;;;6.68;50.92
30935;BME280;51033;42.648;23.292;2023-04-01T22:56:08;92911.34;;;6.62;50.25
30935;BME280;51033;42.648;23.292;2023-04-01T22:58:41;92948.53;;;6.74;50.59
30935;BME280;51033;42.648;23.292;2023-04-01T23:01:14;92923.94;;;6.65;50.67
30935;BME280;51033;42.648;23.292;2023-04-01T23:03:44;92933.13;;;6.85;50.53
30935;BME280;51033;42.648;23.292;2023-04-01T23:06:19;92966.72;;;6.93;50.69
30935;BME280;51033;42.648;23.292;2023-04-01T23:09:05;92937.47;;;6.81;50.49
30935;BME280;51033;42.648;23.292;2023-04-01T23:12:09;92937.19;;;6.74;50.61
30935;BME280;51033;42.648;23.292;2023-04-01T23:17:21;92954.91;;;6.99;50.49
30935;BME280;51033;42.648;23.292;2023-04-01T23:22:34;92953.84;;;7.09;49.41
30935;BME280;51033;42.648;23.292;2023-04-01T23:35:51;92950.34;;;6.65;51.06
30935;BME280;51033;42.648;23.292;2023-04-01T23:38:20;92924.22;;;6.38;50.81